sensor_id;sensor_type;location;lat;lon;timestamp;temperature;humidity
37426;DHT22;23285;50.180;7.036;2023-04-03T00:02:13;4.50;99.90
37426;DHT22;23285;50.180;7.036;2023-04-03T00:07:46;4.50;99.90
37426;DHT22;23285;50.180;7.036;2023-04-03T00:13:21;4.40;99.90
37426;DHT22;23285;50.180;7.036;2023-04-03T00:16:10;4.60;99.90
37426;DHT22;23285;50.180;7.036;2023-04-03T00:18:56;4.40;99.90
37426;DHT22;23285;50.180;7.036;2023-04-03T00:24:29;5.00;99.90
37426;DHT22;23285;50.180;7.036;2023-04-03T00:27:15;5.30;99.90
37426;DHT22;23285;50.180;7.036;2023-04-03T00:30:02;5.30;99.90
37426;DHT22;23285;50.180;7.036;2023-04-03T00:32:51;4.90;99.90
37426;DHT22;23285;50.180;7.036;2023-04-03T00:38:24;4.60;99.90
37426;DHT22;23285;50.180;7.036;2023-04-03T00:41:11;4.60;99.90
37426;DHT22;23285;50.180;7.036;2023-04-03T00:43:58;4.30;99.90
37426;DHT22;23285;50.180;7.036;2023-04-03T00:52:22;4.30;99.90
37426;DHT22;23285;50.180;7.036;2023-04-03T00:57:58;4.50;99.90
37426;DHT22;23285;50.180;7.036;2023-04-03T01:00:50;4.40;99.90
37426;DHT22;23285;50.180;7.036;2023-04-03T01:03:40;4.50;99.90
37426;DHT22;23285;50.180;7.036;2023-04-03T01:06:30;4.20;99.90
37426;DHT22;23285;50.180;7.036;2023-04-03T01:09:24;4.30;99.90
37426;DHT22;23285;50.180;7.036;2023-04-03T01:12:16;4.10;99.90
37426;DHT22;23285;50.180;7.036;2023-04-03T01:15:06;4.10;99.90
37426;DHT22;23285;50.180;7.036;2023-04-03T01:17:54;4.20;99.90
37426;DHT22;23285;50.180;7.036;2023-04-03T01:23:59;4.30;99.90
37426;DHT22;23285;50.180;7.036;2023-04-03T01:26:49;4.50;99.90
37426;DHT22;23285;50.180;7.036;2023-04-03T01:29:36;4.20;99.90
37426;DHT22;23285;50.180;7.036;2023-04-03T01:32:24;4.30;99.90
37426;DHT22;23285;50.180;7.036;2023-04-03T01:35:11;4.20;99.90
37426;DHT22;23285;50.180;7.036;2023-04-03T01:37:57;4.00;99.90
37426;DHT22;23285;50.180;7.036;2023-04-03T01:43:30;3.90;99.90
37426;DHT22;23285;50.180;7.036;2023-04-03T01:46:18;3.70;99.90
37426;DHT22;23285;50.180;7.036;2023-04-03T01:49:06;3.80;99.90
37426;DHT22;23285;50.180;7.036;2023-04-03T01:54:39;4.20;99.90
37426;DHT22;23285;50.180;7.036;2023-04-03T02:05:47;4.70;99.90
37426;DHT22;23285;50.180;7.036;2023-04-03T02:11:20;4.60;99.90
37426;DHT22;23285;50.180;7.036;2023-04-03T02:14:07;4.60;99.90
37426;DHT22;23285;50.180;7.036;2023-04-03T02:19:41;4.40;99.90
37426;DHT22;23285;50.180;7.036;2023-04-03T02:25:15;4.40;99.90
37426;DHT22;23285;50.180;7.036;2023-04-03T02:28:03;4.70;99.90
37426;DHT22;23285;50.180;7.036;2023-04-03T02:30:49;4.40;99.90
37426;DHT22;23285;50.180;7.036;2023-04-03T02:33:36;4.30;99.90
37426;DHT22;23285;50.180;7.036;2023-04-03T02:36:25;4.40;99.90
37426;DHT22;23285;50.180;7.036;2023-04-03T02:42:04;4.30;99.90
37426;DHT22;23285;50.180;7.036;2023-04-03T02:47:37;4.40;99.90
37426;DHT22;23285;50.180;7.036;2023-04-03T02:50:23;4.60;99.90
37426;DHT22;23285;50.180;7.036;2023-04-03T02:53:09;4.50;99.90
37426;DHT22;23285;50.180;7.036;2023-04-03T03:01:30;4.30;99.90
37426;DHT22;23285;50.180;7.036;2023-04-03T03:04:18;4.80;99.90
37426;DHT22;23285;50.180;7.036;2023-04-03T03:07:04;4.60;99.90
37426;DHT22;23285;50.180;7.036;2023-04-03T03:09:50;5.00;99.90
37426;DHT22;23285;50.180;7.036;2023-04-03T03:18:12;4.30;99.90
37426;DHT22;23285;50.180;7.036;2023-04-03T03:20:59;4.40;99.90
37426;DHT22;23285;50.180;7.036;2023-04-03T03:26:33;3.80;99.90
37426;DHT22;23285;50.180;7.036;2023-04-03T03:34:55;5.00;99.90
37426;DHT22;23285;50.180;7.036;2023-04-03T03:37:41;4.40;99.90
37426;DHT22;23285;50.180;7.036;2023-04-03T03:40:28;4.40;99.90
37426;DHT22;23285;50.180;7.036;2023-04-03T03:43:14;4.00;99.90
37426;DHT22;23285;50.180;7.036;2023-04-03T03:48:48;4.20;99.90
37426;DHT22;23285;50.180;7.036;2023-04-03T04:02:44;4.30;99.90
37426;DHT22;23285;50.180;7.036;2023-04-03T04:08:22;4.50;99.90
37426;DHT22;23285;50.180;7.036;2023-04-03T04:11:08;4.30;99.90
37426;DHT22;23285;50.180;7.036;2023-04-03T04:16:45;4.20;99.90
37426;DHT22;23285;50.180;7.036;2023-04-03T04:19:38;4.10;99.90
37426;DHT22;23285;50.180;7.036;2023-04-03T04:22:25;4.30;99.90
37426;DHT22;23285;50.180;7.036;2023-04-03T04:25:12;4.40;99.90
37426;DHT22;23285;50.180;7.036;2023-04-03T04:27:59;4.30;99.90
37426;DHT22;23285;50.180;7.036;2023-04-03T04:36:24;4.60;99.90
37426;DHT22;23285;50.180;7.036;2023-04-03T04:41:57;4.50;99.90
37426;DHT22;23285;50.180;7.036;2023-04-03T04:44:46;4.50;99.90
37426;DHT22;23285;50.180;7.036;2023-04-03T04:47:33;4.20;99.90
37426;DHT22;23285;50.180;7.036;2023-04-03T04:50:20;4.00;99.90
37426;DHT22;23285;50.180;7.036;2023-04-03T04:53:07;4.10;99.90
37426;DHT22;23285;50.180;7.036;2023-04-03T04:55:54;3.90;99.90
37426;DHT22;23285;50.180;7.036;2023-04-03T04:58:41;4.30;99.90
37426;DHT22;23285;50.180;7.036;2023-04-03T05:01:27;4.20;99.90
37426;DHT22;23285;50.180;7.036;2023-04-03T05:12:47;4.30;99.90
37426;DHT22;23285;50.180;7.036;2023-04-03T05:15:33;3.90;99.90
37426;DHT22;23285;50.180;7.036;2023-04-03T05:18:20;3.90;99.90
37426;DHT22;23285;50.180;7.036;2023-04-03T05:26:42;4.20;99.90
37426;DHT22;23285;50.180;7.036;2023-04-03T05:29:30;3.70;99.90
37426;DHT22;23285;50.180;7.036;2023-04-03T05:32:18;3.80;99.90
37426;DHT22;23285;50.180;7.036;2023-04-03T05:40:42;3.90;99.90
37426;DHT22;23285;50.180;7.036;2023-04-03T05:43:31;3.60;99.90
37426;DHT22;23285;50.180;7.036;2023-04-03T05:46:19;3.70;99.90
37426;DHT22;23285;50.180;7.036;2023-04-03T05:49:11;3.60;99.90
37426;DHT22;23285;50.180;7.036;2023-04-03T05:51:57;3.30;99.90
37426;DHT22;23285;50.180;7.036;2023-04-03T05:54:47;3.30;99.90
37426;DHT22;23285;50.180;7.036;2023-04-03T05:57:38;3.40;99.90
37426;DHT22;23285;50.180;7.036;2023-04-03T06:00:26;3.20;99.90
37426;DHT22;23285;50.180;7.036;2023-04-03T06:03:19;3.30;99.90
37426;DHT22;23285;50.180;7.036;2023-04-03T06:06:06;3.40;99.90
37426;DHT22;23285;50.180;7.036;2023-04-03T06:14:26;3.00;99.90
37426;DHT22;23285;50.180;7.036;2023-04-03T06:17:15;3.20;99.90
37426;DHT22;23285;50.180;7.036;2023-04-03T06:20:03;3.50;99.90
37426;DHT22;23285;50.180;7.036;2023-04-03T06:22:49;3.40;99.90
37426;DHT22;23285;50.180;7.036;2023-04-03T06:25:36;3.40;99.90
37426;DHT22;23285;50.180;7.036;2023-04-03T06:28:22;3.30;99.90
37426;DHT22;23285;50.180;7.036;2023-04-03T06:33:56;3.30;99.90
37426;DHT22;23285;50.180;7.036;2023-04-03T06:39:30;3.10;99.90
37426;DHT22;23285;50.180;7.036;2023-04-03T06:42:16;3.10;99.90
37426;DHT22;23285;50.180;7.036;2023-04-03T06:45:12;3.50;99.90
37426;DHT22;23285;50.180;7.036;2023-04-03T06:47:59;3.50;99.90
37426;DHT22;23285;50.180;7.036;2023-04-03T06:50:46;3.80;99.90
37426;DHT22;23285;50.180;7.036;2023-04-03T06:53:33;3.60;99.90
37426;DHT22;23285;50.180;7.036;2023-04-03T06:59:07;3.40;99.90
37426;DHT22;23285;50.180;7.036;2023-04-03T07:01:53;3.40;99.90
37426;DHT22;23285;50.180;7.036;2023-04-03T07:04:39;3.70;99.90
37426;DHT22;23285;50.180;7.036;2023-04-03T07:10:13;4.10;99.90
37426;DHT22;23285;50.180;7.036;2023-04-03T07:13:00;3.60;99.90
37426;DHT22;23285;50.180;7.036;2023-04-03T07:15:47;3.60;99.90
37426;DHT22;23285;50.180;7.036;2023-04-03T07:18:34;3.60;99.90
37426;DHT22;23285;50.180;7.036;2023-04-03T07:21:20;3.60;99.90
37426;DHT22;23285;50.180;7.036;2023-04-03T07:24:08;3.80;99.90
37426;DHT22;23285;50.180;7.036;2023-04-03T07:26:54;3.60;99.90
37426;DHT22;23285;50.180;7.036;2023-04-03T07:32:27;3.70;99.90
37426;DHT22;23285;50.180;7.036;2023-04-03T07:35:14;4.00;99.90
37426;DHT22;23285;50.180;7.036;2023-04-03T07:38:01;4.10;99.90
37426;DHT22;23285;50.180;7.036;2023-04-03T07:40:50;4.10;99.90
37426;DHT22;23285;50.180;7.036;2023-04-03T07:43:37;4.10;99.90
37426;DHT22;23285;50.180;7.036;2023-04-03T07:51:57;4.20;99.90
37426;DHT22;23285;50.180;7.036;2023-04-03T07:54:43;4.30;99.90
37426;DHT22;23285;50.180;7.036;2023-04-03T07:57:31;4.40;99.90
37426;DHT22;23285;50.180;7.036;2023-04-03T08:00:18;4.50;99.90
37426;DHT22;23285;50.180;7.036;2023-04-03T08:03:06;4.50;99.90
37426;DHT22;23285;50.180;7.036;2023-04-03T08:05:52;4.80;99.90
37426;DHT22;23285;50.180;7.036;2023-04-03T08:08:39;4.90;99.90
37426;DHT22;23285;50.180;7.036;2023-04-03T08:11:25;5.00;99.90
37426;DHT22;23285;50.180;7.036;2023-04-03T08:14:13;5.10;99.90
37426;DHT22;23285;50.180;7.036;2023-04-03T08:17:03;5.30;99.90
37426;DHT22;23285;50.180;7.036;2023-04-03T08:22:37;5.30;99.90
37426;DHT22;23285;50.180;7.036;2023-04-03T08:25:23;5.50;99.90
37426;DHT22;23285;50.180;7.036;2023-04-03T08:28:11;5.50;99.90
37426;DHT22;23285;50.180;7.036;2023-04-03T08:31:02;5.50;99.90
37426;DHT22;23285;50.180;7.036;2023-04-03T08:33:49;5.50;99.90
37426;DHT22;23285;50.180;7.036;2023-04-03T08:36:35;5.70;99.90
37426;DHT22;23285;50.180;7.036;2023-04-03T08:39:21;5.80;99.90
37426;DHT22;23285;50.180;7.036;2023-04-03T08:42:16;5.70;99.90
37426;DHT22;23285;50.180;7.036;2023-04-03T08:45:08;6.00;99.90
37426;DHT22;23285;50.180;7.036;2023-04-03T08:53:37;6.30;99.90
37426;DHT22;23285;50.180;7.036;2023-04-03T09:02:23;5.60;99.90
37426;DHT22;23285;50.180;7.036;2023-04-03T09:05:13;5.50;99.90
37426;DHT22;23285;50.180;7.036;2023-04-03T09:08:04;5.90;99.90
37426;DHT22;23285;50.180;7.036;2023-04-03T09:10:59;6.50;99.90
37426;DHT22;23285;50.180;7.036;2023-04-03T09:13:50;6.80;99.90
37426;DHT22;23285;50.180;7.036;2023-04-03T09:19:38;7.00;99.90
37426;DHT22;23285;50.180;7.036;2023-04-03T09:25:20;7.40;99.90
37426;DHT22;23285;50.180;7.036;2023-04-03T09:28:07;7.50;99.90
37426;DHT22;23285;50.180;7.036;2023-04-03T09:30:54;7.10;99.90
37426;DHT22;23285;50.180;7.036;2023-04-03T09:33:40;7.50;99.90
37426;DHT22;23285;50.180;7.036;2023-04-03T09:36:43;7.70;99.90
37426;DHT22;23285;50.180;7.036;2023-04-03T09:42:20;7.80;99.90
37426;DHT22;23285;50.180;7.036;2023-04-03T09:45:21;7.70;99.90
37426;DHT22;23285;50.180;7.036;2023-04-03T09:48:16;7.50;99.90
37426;DHT22;23285;50.180;7.036;2023-04-03T09:51:03;7.50;99.90
37426;DHT22;23285;50.180;7.036;2023-04-03T09:53:49;7.70;99.90
37426;DHT22;23285;50.180;7.036;2023-04-03T09:56:37;7.90;99.90
37426;DHT22;23285;50.180;7.036;2023-04-03T09:59:24;7.50;99.90
37426;DHT22;23285;50.180;7.036;2023-04-03T10:05:31;7.50;99.90
37426;DHT22;23285;50.180;7.036;2023-04-03T10:08:22;7.60;99.90
37426;DHT22;23285;50.180;7.036;2023-04-03T10:11:15;7.40;99.90
37426;DHT22;23285;50.180;7.036;2023-04-03T10:14:03;6.90;99.90
37426;DHT22;23285;50.180;7.036;2023-04-03T10:16:57;6.40;99.90
37426;DHT22;23285;50.180;7.036;2023-04-03T10:25:27;6.10;99.90
37426;DHT22;23285;50.180;7.036;2023-04-03T10:34:02;7.40;99.90
37426;DHT22;23285;50.180;7.036;2023-04-03T10:39:43;7.90;99.90
37426;DHT22;23285;50.180;7.036;2023-04-03T10:45:26;7.50;99.90
37426;DHT22;23285;50.180;7.036;2023-04-03T10:48:21;7.90;99.90
37426;DHT22;23285;50.180;7.036;2023-04-03T10:51:16;7.60;99.90
37426;DHT22;23285;50.180;7.036;2023-04-03T10:54:11;7.80;99.90
37426;DHT22;23285;50.180;7.036;2023-04-03T10:57:03;8.10;99.90
37426;DHT22;23285;50.180;7.036;2023-04-03T10:59:55;7.70;99.90
37426;DHT22;23285;50.180;7.036;2023-04-03T11:02:49;7.60;99.90
37426;DHT22;23285;50.180;7.036;2023-04-03T11:05:42;7.10;99.90
37426;DHT22;23285;50.180;7.036;2023-04-03T11:11:24;7.10;99.90
37426;DHT22;23285;50.180;7.036;2023-04-03T11:17:11;6.70;99.90
37426;DHT22;23285;50.180;7.036;2023-04-03T11:20:06;6.30;99.90
37426;DHT22;23285;50.180;7.036;2023-04-03T11:23:02;6.40;99.90
37426;DHT22;23285;50.180;7.036;2023-04-03T11:25:51;6.30;99.90
37426;DHT22;23285;50.180;7.036;2023-04-03T11:28:39;6.30;99.90
37426;DHT22;23285;50.180;7.036;2023-04-03T11:34:33;6.90;99.90
37426;DHT22;23285;50.180;7.036;2023-04-03T11:40:22;7.20;99.90
37426;DHT22;23285;50.180;7.036;2023-04-03T11:46:07;7.60;99.90
37426;DHT22;23285;50.180;7.036;2023-04-03T11:48:54;7.80;99.90
37426;DHT22;23285;50.180;7.036;2023-04-03T11:54:49;8.00;99.90
37426;DHT22;23285;50.180;7.036;2023-04-03T12:00:50;7.70;99.90
37426;DHT22;23285;50.180;7.036;2023-04-03T12:07:03;8.70;99.90
37426;DHT22;23285;50.180;7.036;2023-04-03T12:09:58;8.90;99.90
37426;DHT22;23285;50.180;7.036;2023-04-03T12:13:01;8.70;99.90
37426;DHT22;23285;50.180;7.036;2023-04-03T12:15:51;9.10;99.90
37426;DHT22;23285;50.180;7.036;2023-04-03T12:18:43;8.90;99.90
37426;DHT22;23285;50.180;7.036;2023-04-03T12:22:06;9.30;99.90
37426;DHT22;23285;50.180;7.036;2023-04-03T12:24:53;9.20;99.90
37426;DHT22;23285;50.180;7.036;2023-04-03T12:27:42;8.80;99.90
37426;DHT22;23285;50.180;7.036;2023-04-03T12:33:27;9.80;99.90
37426;DHT22;23285;50.180;7.036;2023-04-03T12:36:23;9.60;99.90
37426;DHT22;23285;50.180;7.036;2023-04-03T12:45:24;9.20;99.90
37426;DHT22;23285;50.180;7.036;2023-04-03T12:48:15;9.10;99.90
37426;DHT22;23285;50.180;7.036;2023-04-03T12:51:02;9.10;99.90
37426;DHT22;23285;50.180;7.036;2023-04-03T12:56:38;9.00;99.90
37426;DHT22;23285;50.180;7.036;2023-04-03T12:59:26;8.80;99.90
37426;DHT22;23285;50.180;7.036;2023-04-03T13:05:21;9.00;99.90
37426;DHT22;23285;50.180;7.036;2023-04-03T13:11:00;8.90;99.90
37426;DHT22;23285;50.180;7.036;2023-04-03T13:13:57;8.90;99.90
37426;DHT22;23285;50.180;7.036;2023-04-03T13:16:53;9.20;99.90
37426;DHT22;23285;50.180;7.036;2023-04-03T13:19:41;8.90;99.90
37426;DHT22;23285;50.180;7.036;2023-04-03T13:22:33;8.30;99.90
37426;DHT22;23285;50.180;7.036;2023-04-03T13:25:26;8.90;99.90
37426;DHT22;23285;50.180;7.036;2023-04-03T13:28:16;9.10;99.90
37426;DHT22;23285;50.180;7.036;2023-04-03T13:31:08;9.40;99.90
37426;DHT22;23285;50.180;7.036;2023-04-03T13:36:46;9.80;99.90
37426;DHT22;23285;50.180;7.036;2023-04-03T13:39:41;9.20;99.90
37426;DHT22;23285;50.180;7.036;2023-04-03T13:42:30;9.00;99.90
37426;DHT22;23285;50.180;7.036;2023-04-03T13:45:22;9.20;99.90
37426;DHT22;23285;50.180;7.036;2023-04-03T13:48:15;9.60;99.90
37426;DHT22;23285;50.180;7.036;2023-04-03T13:51:04;9.30;99.90
37426;DHT22;23285;50.180;7.036;2023-04-03T13:53:53;9.40;99.70
37426;DHT22;23285;50.180;7.036;2023-04-03T13:59:30;9.60;99.60
37426;DHT22;23285;50.180;7.036;2023-04-03T14:02:19;9.50;98.00
37426;DHT22;23285;50.180;7.036;2023-04-03T14:05:07;9.30;99.30
37426;DHT22;23285;50.180;7.036;2023-04-03T14:07:55;9.50;98.00
37426;DHT22;23285;50.180;7.036;2023-04-03T14:10:42;9.60;97.40
37426;DHT22;23285;50.180;7.036;2023-04-03T14:13:31;9.50;99.60
37426;DHT22;23285;50.180;7.036;2023-04-03T14:16:20;9.80;98.40
37426;DHT22;23285;50.180;7.036;2023-04-03T14:19:06;9.60;99.10
37426;DHT22;23285;50.180;7.036;2023-04-03T14:24:40;9.30;99.30
37426;DHT22;23285;50.180;7.036;2023-04-03T14:27:30;9.30;99.70
37426;DHT22;23285;50.180;7.036;2023-04-03T14:30:23;9.70;99.40
37426;DHT22;23285;50.180;7.036;2023-04-03T14:33:13;10.00;97.50
37426;DHT22;23285;50.180;7.036;2023-04-03T14:36:00;10.10;96.10
37426;DHT22;23285;50.180;7.036;2023-04-03T14:38:48;9.60;96.20
37426;DHT22;23285;50.180;7.036;2023-04-03T14:41:35;9.60;95.50
37426;DHT22;23285;50.180;7.036;2023-04-03T14:44:21;10.00;93.90
37426;DHT22;23285;50.180;7.036;2023-04-03T14:49:58;9.80;96.40
37426;DHT22;23285;50.180;7.036;2023-04-03T14:52:44;10.10;95.70
37426;DHT22;23285;50.180;7.036;2023-04-03T15:01:05;10.00;96.40
37426;DHT22;23285;50.180;7.036;2023-04-03T15:03:55;9.80;96.40
37426;DHT22;23285;50.180;7.036;2023-04-03T15:06:41;9.80;95.30
37426;DHT22;23285;50.180;7.036;2023-04-03T15:09:27;9.90;95.40
37426;DHT22;23285;50.180;7.036;2023-04-03T15:12:14;10.00;94.20
37426;DHT22;23285;50.180;7.036;2023-04-03T15:15:00;10.20;94.30
37426;DHT22;23285;50.180;7.036;2023-04-03T15:17:51;10.30;94.30
37426;DHT22;23285;50.180;7.036;2023-04-03T15:20:40;10.10;94.50
37426;DHT22;23285;50.180;7.036;2023-04-03T15:23:28;10.10;94.10
37426;DHT22;23285;50.180;7.036;2023-04-03T15:26:14;10.00;94.10
37426;DHT22;23285;50.180;7.036;2023-04-03T15:29:00;10.10;94.00
37426;DHT22;23285;50.180;7.036;2023-04-03T15:31:47;9.90;94.60
37426;DHT22;23285;50.180;7.036;2023-04-03T15:37:22;10.00;94.90
37426;DHT22;23285;50.180;7.036;2023-04-03T15:40:09;10.10;94.30
37426;DHT22;23285;50.180;7.036;2023-04-03T15:42:56;10.30;94.00
37426;DHT22;23285;50.180;7.036;2023-04-03T15:45:43;10.30;93.40
37426;DHT22;23285;50.180;7.036;2023-04-03T15:48:30;10.50;94.00
37426;DHT22;23285;50.180;7.036;2023-04-03T15:51:16;10.60;93.50
37426;DHT22;23285;50.180;7.036;2023-04-03T15:54:04;10.80;93.40
37426;DHT22;23285;50.180;7.036;2023-04-03T16:02:24;10.80;92.60
37426;DHT22;23285;50.180;7.036;2023-04-03T16:08:00;11.20;92.50
37426;DHT22;23285;50.180;7.036;2023-04-03T16:10:48;10.50;93.10
37426;DHT22;23285;50.180;7.036;2023-04-03T16:13:34;10.30;93.30
37426;DHT22;23285;50.180;7.036;2023-04-03T16:16:21;10.30;93.70
37426;DHT22;23285;50.180;7.036;2023-04-03T16:19:09;10.80;93.50
37426;DHT22;23285;50.180;7.036;2023-04-03T16:21:55;11.10;92.50
37426;DHT22;23285;50.180;7.036;2023-04-03T16:27:30;10.50;92.80
37426;DHT22;23285;50.180;7.036;2023-04-03T16:33:03;9.90;94.00
37426;DHT22;23285;50.180;7.036;2023-04-03T16:41:23;10.60;92.50
37426;DHT22;23285;50.180;7.036;2023-04-03T16:44:11;10.50;92.50
37426;DHT22;23285;50.180;7.036;2023-04-03T16:46:57;10.30;92.00
37426;DHT22;23285;50.180;7.036;2023-04-03T16:52:30;10.00;91.30
37426;DHT22;23285;50.180;7.036;2023-04-03T16:55:16;10.10;91.90
37426;DHT22;23285;50.180;7.036;2023-04-03T17:00:50;10.20;91.30
37426;DHT22;23285;50.180;7.036;2023-04-03T17:03:38;10.40;91.50
37426;DHT22;23285;50.180;7.036;2023-04-03T17:06:25;9.90;91.80
37426;DHT22;23285;50.180;7.036;2023-04-03T17:09:11;10.20;91.90
37426;DHT22;23285;50.180;7.036;2023-04-03T17:11:58;10.30;91.10
37426;DHT22;23285;50.180;7.036;2023-04-03T17:14:44;10.00;91.10
37426;DHT22;23285;50.180;7.036;2023-04-03T17:23:06;10.50;90.60
37426;DHT22;23285;50.180;7.036;2023-04-03T17:25:53;9.60;92.10
37426;DHT22;23285;50.180;7.036;2023-04-03T17:28:39;9.70;91.50
37426;DHT22;23285;50.180;7.036;2023-04-03T17:31:26;9.10;91.70
37426;DHT22;23285;50.180;7.036;2023-04-03T17:34:13;9.50;92.10
37426;DHT22;23285;50.180;7.036;2023-04-03T17:37:00;9.10;91.90
37426;DHT22;23285;50.180;7.036;2023-04-03T17:42:32;9.50;91.60
37426;DHT22;23285;50.180;7.036;2023-04-03T17:45:18;8.70;92.70
37426;DHT22;23285;50.180;7.036;2023-04-03T17:48:05;8.50;92.60
37426;DHT22;23285;50.180;7.036;2023-04-03T17:50:53;8.00;93.00
37426;DHT22;23285;50.180;7.036;2023-04-03T17:53:40;8.00;93.50
37426;DHT22;23285;50.180;7.036;2023-04-03T18:01:59;8.10;94.20
37426;DHT22;23285;50.180;7.036;2023-04-03T18:04:45;7.60;93.80
37426;DHT22;23285;50.180;7.036;2023-04-03T18:07:33;7.60;94.00
37426;DHT22;23285;50.180;7.036;2023-04-03T18:10:19;7.40;94.20
37426;DHT22;23285;50.180;7.036;2023-04-03T18:18:39;7.10;95.50
37426;DHT22;23285;50.180;7.036;2023-04-03T18:24:17;7.30;95.30
37426;DHT22;23285;50.180;7.036;2023-04-03T18:29:54;7.20;95.60
37426;DHT22;23285;50.180;7.036;2023-04-03T18:32:41;6.60;96.00
37426;DHT22;23285;50.180;7.036;2023-04-03T18:38:14;6.70;97.00
37426;DHT22;23285;50.180;7.036;2023-04-03T18:43:49;6.70;96.60
37426;DHT22;23285;50.180;7.036;2023-04-03T18:46:36;6.20;95.90
37426;DHT22;23285;50.180;7.036;2023-04-03T18:49:23;6.20;96.10
37426;DHT22;23285;50.180;7.036;2023-04-03T18:52:10;6.00;96.70
37426;DHT22;23285;50.180;7.036;2023-04-03T18:54:57;6.10;96.50
37426;DHT22;23285;50.180;7.036;2023-04-03T18:57:45;6.00;96.40
37426;DHT22;23285;50.180;7.036;2023-04-03T19:00:32;5.80;96.30
37426;DHT22;23285;50.180;7.036;2023-04-03T19:03:18;6.10;96.40
37426;DHT22;23285;50.180;7.036;2023-04-03T19:06:04;6.20;96.40
37426;DHT22;23285;50.180;7.036;2023-04-03T19:11:38;5.80;96.90
37426;DHT22;23285;50.180;7.036;2023-04-03T19:14:26;5.60;96.70
37426;DHT22;23285;50.180;7.036;2023-04-03T19:17:12;5.30;97.10
37426;DHT22;23285;50.180;7.036;2023-04-03T19:19:58;5.60;96.80
37426;DHT22;23285;50.180;7.036;2023-04-03T19:22:44;5.50;97.10
37426;DHT22;23285;50.180;7.036;2023-04-03T19:25:31;5.80;96.70
37426;DHT22;23285;50.180;7.036;2023-04-03T19:31:10;5.40;97.70
37426;DHT22;23285;50.180;7.036;2023-04-03T19:33:57;5.60;97.60
37426;DHT22;23285;50.180;7.036;2023-04-03T19:36:43;6.10;96.60
37426;DHT22;23285;50.180;7.036;2023-04-03T19:39:30;5.30;97.40
37426;DHT22;23285;50.180;7.036;2023-04-03T19:42:19;5.30;97.40
37426;DHT22;23285;50.180;7.036;2023-04-03T19:47:54;5.10;98.60
37426;DHT22;23285;50.180;7.036;2023-04-03T19:50:43;4.90;98.30
37426;DHT22;23285;50.180;7.036;2023-04-03T19:53:30;5.20;97.80
37426;DHT22;23285;50.180;7.036;2023-04-03T19:56:16;4.90;98.80
37426;DHT22;23285;50.180;7.036;2023-04-03T20:07:26;4.80;99.70
37426;DHT22;23285;50.180;7.036;2023-04-03T20:10:12;4.60;98.70
37426;DHT22;23285;50.180;7.036;2023-04-03T20:12:58;4.20;99.20
37426;DHT22;23285;50.180;7.036;2023-04-03T20:15:44;4.40;99.00
37426;DHT22;23285;50.180;7.036;2023-04-03T20:21:19;4.30;99.90
37426;DHT22;23285;50.180;7.036;2023-04-03T20:24:07;4.50;99.50
37426;DHT22;23285;50.180;7.036;2023-04-03T20:26:53;4.30;99.40
37426;DHT22;23285;50.180;7.036;2023-04-03T20:29:41;4.10;99.90
37426;DHT22;23285;50.180;7.036;2023-04-03T20:32:28;4.10;99.80
37426;DHT22;23285;50.180;7.036;2023-04-03T20:35:14;4.30;99.60
37426;DHT22;23285;50.180;7.036;2023-04-03T20:38:02;4.30;99.60
37426;DHT22;23285;50.180;7.036;2023-04-03T20:40:50;4.30;99.70
37426;DHT22;23285;50.180;7.036;2023-04-03T20:43:37;4.40;99.90
37426;DHT22;23285;50.180;7.036;2023-04-03T20:46:23;4.20;99.80
37426;DHT22;23285;50.180;7.036;2023-04-03T20:51:58;4.00;99.90
37426;DHT22;23285;50.180;7.036;2023-04-03T20:54:46;4.20;99.90
37426;DHT22;23285;50.180;7.036;2023-04-03T20:57:32;4.00;99.90
37426;DHT22;23285;50.180;7.036;2023-04-03T21:00:19;3.90;99.90
37426;DHT22;23285;50.180;7.036;2023-04-03T21:03:06;4.10;99.90
37426;DHT22;23285;50.180;7.036;2023-04-03T21:21:35;3.50;99.90
37426;DHT22;23285;50.180;7.036;2023-04-03T21:24:22;3.60;99.90
37426;DHT22;23285;50.180;7.036;2023-04-03T21:27:08;3.80;99.90
37426;DHT22;23285;50.180;7.036;2023-04-03T21:29:55;3.70;99.90
37426;DHT22;23285;50.180;7.036;2023-04-03T21:32:41;3.60;99.90
37426;DHT22;23285;50.180;7.036;2023-04-03T21:35:28;3.60;99.90
37426;DHT22;23285;50.180;7.036;2023-04-03T21:38:15;3.60;99.90
37426;DHT22;23285;50.180;7.036;2023-04-03T21:41:02;3.50;99.90
37426;DHT22;23285;50.180;7.036;2023-04-03T21:49:23;3.70;99.90
37426;DHT22;23285;50.180;7.036;2023-04-03T21:52:11;3.80;99.90
37426;DHT22;23285;50.180;7.036;2023-04-03T22:00:35;3.70;99.90
37426;DHT22;23285;50.180;7.036;2023-04-03T22:06:10;3.60;99.90
37426;DHT22;23285;50.180;7.036;2023-04-03T22:08:58;3.00;99.90
37426;DHT22;23285;50.180;7.036;2023-04-03T22:14:32;3.00;99.90
37426;DHT22;23285;50.180;7.036;2023-04-03T22:20:07;3.10;99.90
37426;DHT22;23285;50.180;7.036;2023-04-03T22:22:53;3.30;99.90
37426;DHT22;23285;50.180;7.036;2023-04-03T22:25:41;3.10;99.90
37426;DHT22;23285;50.180;7.036;2023-04-03T22:34:01;3.30;99.90
37426;DHT22;23285;50.180;7.036;2023-04-03T22:36:49;3.20;99.90
37426;DHT22;23285;50.180;7.036;2023-04-03T22:39:35;3.10;99.90
37426;DHT22;23285;50.180;7.036;2023-04-03T22:42:22;3.20;99.90
37426;DHT22;23285;50.180;7.036;2023-04-03T22:47:56;3.00;99.90
37426;DHT22;23285;50.180;7.036;2023-04-03T22:50:42;3.30;99.90
37426;DHT22;23285;50.180;7.036;2023-04-03T22:53:29;3.30;99.90
37426;DHT22;23285;50.180;7.036;2023-04-03T22:56:15;3.20;99.90
37426;DHT22;23285;50.180;7.036;2023-04-03T22:59:04;3.10;99.90
37426;DHT22;23285;50.180;7.036;2023-04-03T23:01:50;3.00;99.90
37426;DHT22;23285;50.180;7.036;2023-04-03T23:04:36;3.00;99.90
37426;DHT22;23285;50.180;7.036;2023-04-03T23:07:23;2.80;99.90
37426;DHT22;23285;50.180;7.036;2023-04-03T23:10:10;2.90;99.90
37426;DHT22;23285;50.180;7.036;2023-04-03T23:12:56;3.00;99.90
37426;DHT22;23285;50.180;7.036;2023-04-03T23:15:51;3.50;99.90
37426;DHT22;23285;50.180;7.036;2023-04-03T23:18:38;3.10;99.90
37426;DHT22;23285;50.180;7.036;2023-04-03T23:21:24;3.40;99.90
37426;DHT22;23285;50.180;7.036;2023-04-03T23:24:11;3.00;99.90
37426;DHT22;23285;50.180;7.036;2023-04-03T23:26:57;2.80;99.90
37426;DHT22;23285;50.180;7.036;2023-04-03T23:32:31;3.00;99.90
37426;DHT22;23285;50.180;7.036;2023-04-03T23:35:17;2.90;99.90
37426;DHT22;23285;50.180;7.036;2023-04-03T23:40:49;3.00;99.90
37426;DHT22;23285;50.180;7.036;2023-04-03T23:43:36;2.80;99.90
37426;DHT22;23285;50.180;7.036;2023-04-03T23:46:23;2.70;99.90
37426;DHT22;23285;50.180;7.036;2023-04-03T23:49:11;2.50;99.90
37426;DHT22;23285;50.180;7.036;2023-04-03T23:57:30;2.40;99.90
